createdAt,value
2022-09-05T00:05:03.874Z,2.71
2022-09-05T00:10:09.966Z,2.84
2022-09-05T00:15:18.922Z,2.89
2022-09-05T00:24:29.711Z,2.93
2022-09-05T00:25:31.677Z,3.11
2022-09-05T00:31:07.223Z,2.84
2022-09-05T00:35:39.302Z,3.27
2022-09-05T00:40:45.632Z,2.68
2022-09-05T00:45:51.861Z,2.84
2022-09-05T00:50:57.989Z,2.77
2022-09-05T00:56:04.381Z,2.79
2022-09-05T01:01:20.957Z,2.80
2022-09-05T01:06:16.493Z,3.02
2022-09-05T01:11:22.937Z,2.96
2022-09-05T01:16:29.300Z,3.17
2022-09-05T01:21:35.381Z,3.09
2022-09-05T01:26:41.707Z,3.19
2022-09-05T01:31:47.848Z,3.24
2022-09-05T01:36:54.107Z,3.06
2022-09-05T01:42:03.069Z,2.93
2022-09-05T01:47:09.686Z,3.15
2022-09-05T01:52:15.676Z,3.15
2022-09-05T01:57:22.013Z,3.06
2022-09-05T02:02:28.250Z,3.17
2022-09-05T02:07:34.585Z,3.04
2022-09-05T02:12:40.857Z,3.13
2022-09-05T02:17:50.403Z,3.05
2022-09-05T02:22:52.753Z,3.35
2022-09-05T02:28:05.065Z,3.27
2022-09-05T02:33:04.837Z,2.95
2022-09-05T02:39:49.888Z,3.13
2022-09-05T02:45:13.048Z,3.50
2022-09-05T02:48:22.952Z,3.11
2022-09-05T02:57:34.205Z,3.13
2022-09-05T02:59:05.798Z,3.52
2022-09-05T03:03:40.759Z,3.26
2022-09-05T03:08:46.984Z,3.23
2022-09-05T03:13:54.442Z,3.44
2022-09-05T03:18:59.093Z,3.81
2022-09-05T03:24:05.506Z,3.29
2022-09-05T03:29:12.158Z,3.44
2022-09-05T03:34:18.353Z,3.37
2022-09-05T03:39:24.844Z,3.47
2022-09-05T03:44:31.112Z,3.36
2022-09-05T03:52:56.358Z,3.84
2022-09-05T03:57:28.227Z,3.94
2022-09-05T03:59:48.922Z,3.77
2022-09-05T04:08:16.625Z,3.64
2022-09-05T04:10:01.548Z,4.04
2022-09-05T04:15:07.674Z,3.42
2022-09-05T04:20:13.966Z,3.55
2022-09-05T04:25:20.113Z,3.83
2022-09-05T04:30:34.146Z,3.79
2022-09-05T04:35:32.241Z,3.96
2022-09-05T04:40:38.749Z,3.99
2022-09-05T04:45:45.062Z,3.76
2022-09-05T04:50:51.242Z,3.84
2022-09-05T04:55:57.530Z,3.80
2022-09-05T05:06:01.715Z,3.87
2022-09-05T05:17:38.295Z,3.95
2022-09-05T05:18:12.786Z,3.92
2022-09-05T05:21:28.339Z,3.67
2022-09-05T05:26:34.663Z,3.81
2022-09-05T05:31:41.076Z,3.51
2022-09-05T05:36:47.214Z,3.86
2022-09-05T05:41:53.567Z,3.82
2022-09-05T05:46:59.761Z,3.94
2022-09-05T05:52:06.051Z,3.80
2022-09-05T05:57:15.264Z,3.57
2022-09-05T06:02:18.030Z,3.82
2022-09-05T06:07:24.114Z,4.14
2022-09-05T06:15:06.632Z,3.74
2022-09-05T06:17:36.453Z,3.60
2022-09-05T06:22:42.706Z,4.35
2022-09-05T06:28:17.745Z,3.79
2022-09-05T06:32:58.305Z,3.97
2022-09-05T06:38:00.395Z,3.75
2022-09-05T06:43:06.790Z,3.63
2022-09-05T06:48:14.595Z,3.90
2022-09-05T06:53:20.051Z,3.70
2022-09-05T06:58:24.482Z,3.79
2022-09-05T07:03:32.467Z,4.03
2022-09-05T07:08:37.186Z,3.64
2022-09-05T07:13:42.758Z,4.03
2022-09-05T07:18:47.936Z,3.88
2022-09-05T07:24:09.384Z,3.59
2022-09-05T07:28:59.869Z,3.81
2022-09-05T07:34:06.199Z,3.97
2022-09-05T07:39:28.079Z,4.13
2022-09-05T07:44:17.734Z,3.54
2022-09-05T07:49:23.390Z,3.94
2022-09-05T07:56:53.145Z,3.89
2022-09-05T07:59:35.275Z,3.46
2022-09-05T08:04:41.530Z,3.59
2022-09-05T08:10:09.269Z,3.72
2022-09-05T08:14:53.977Z,3.52
2022-09-05T08:20:08.354Z,3.73
2022-09-05T08:25:05.878Z,3.47
2022-09-05T08:30:25.846Z,3.65
2022-09-05T08:35:17.810Z,3.57
2022-09-05T08:40:24.023Z,4.17
2022-09-05T08:46:47.453Z,3.69
2022-09-05T08:50:36.221Z,3.49
2022-09-05T08:55:42.522Z,3.44
2022-09-05T09:00:55.070Z,3.41
2022-09-05T09:06:14.507Z,3.46
2022-09-05T09:11:00.084Z,3.42
2022-09-05T09:16:07.500Z,3.39
2022-09-05T09:21:13.562Z,3.54
2022-09-05T09:26:19.866Z,3.34
2022-09-05T09:31:25.722Z,3.25
2022-09-05T09:36:31.944Z,3.34
2022-09-05T09:41:38.086Z,3.58
2022-09-05T09:46:44.509Z,3.70
2022-09-05T09:51:50.598Z,3.99
2022-09-05T09:56:56.910Z,3.79
2022-09-05T10:02:32.881Z,3.43
2022-09-05T10:10:46.048Z,3.54
2022-09-05T10:12:14.853Z,3.36
2022-09-05T10:17:20.910Z,3.55
2022-09-05T10:22:36.734Z,3.52
2022-09-05T10:27:32.790Z,3.56
2022-09-05T10:35:07.572Z,3.32
2022-09-05T10:37:44.174Z,3.18
2022-09-05T10:42:58.164Z,3.33
2022-09-05T10:47:56.370Z,3.37
2022-09-05T10:53:02.102Z,3.32
2022-09-05T10:58:08.393Z,3.52
2022-09-05T11:03:22.467Z,3.40
2022-09-05T11:08:20.328Z,3.34
2022-09-05T11:13:26.561Z,3.28
2022-09-05T11:18:56.275Z,3.45
2022-09-05T11:23:38.750Z,3.17
2022-09-05T11:28:51.009Z,3.14
2022-09-05T11:39:46.973Z,3.29
2022-09-05T11:39:57.097Z,3.07
2022-09-05T11:44:25.329Z,3.12
2022-09-05T11:49:07.291Z,2.92
2022-09-05T11:54:13.396Z,2.92
2022-09-05T11:59:33.387Z,2.76
2022-09-05T12:04:25.557Z,3.14
2022-09-05T12:09:31.774Z,2.85
2022-09-05T12:14:41.371Z,2.90
2022-09-05T12:19:43.755Z,2.78
2022-09-05T12:25:24.896Z,2.57
2022-09-05T12:29:59.801Z,2.44
2022-09-05T12:36:07.312Z,2.51
2022-09-05T12:41:36.532Z,2.61
2022-09-05T12:45:13.110Z,2.65
2022-09-05T12:50:19.277Z,2.62
2022-09-05T12:55:25.435Z,2.62
2022-09-05T13:03:08.861Z,2.64
2022-09-05T13:05:37.468Z,2.67
2022-09-05T13:14:49.304Z,2.68
2022-09-05T13:15:49.294Z,2.37
2022-09-05T13:20:55.633Z,2.97
2022-09-05T13:26:01.741Z,2.46
2022-09-05T13:37:55.899Z,2.76
2022-09-05T13:38:10.406Z,2.73
2022-09-05T13:41:27.740Z,2.60
2022-09-05T13:46:25.331Z,2.80
2022-09-05T13:51:31.694Z,2.65
2022-09-05T13:56:37.807Z,2.61
2022-09-05T14:01:44.117Z,2.61
2022-09-05T14:06:49.679Z,2.91
2022-09-05T14:11:56.472Z,2.63
2022-09-05T14:17:50.186Z,2.71
2022-09-05T14:22:07.966Z,2.55
2022-09-05T14:27:13.553Z,2.62
2022-09-05T14:37:38.625Z,2.59
2022-09-05T14:37:46.542Z,2.71
2022-09-05T14:42:31.440Z,2.72
2022-09-05T14:47:37.572Z,2.84
2022-09-05T14:52:44.064Z,2.84
2022-09-05T15:02:42.570Z,2.77
2022-09-05T15:03:02.186Z,2.92
2022-09-05T15:08:01.843Z,2.81
2022-09-05T15:13:08.595Z,3.21
2022-09-05T15:18:14.686Z,3.18
2022-09-05T15:23:26.053Z,3.01
2022-09-05T15:28:26.548Z,3.24
2022-09-05T15:33:32.725Z,3.07
2022-09-05T15:38:55.066Z,3.00
2022-09-05T15:43:44.684Z,3.63
2022-09-05T15:48:50.781Z,3.30
2022-09-05T15:53:57.069Z,3.51
2022-09-05T15:59:03.266Z,3.36
2022-09-05T16:10:30.005Z,3.00
2022-09-05T16:10:42.031Z,2.96
2022-09-05T16:14:21.386Z,3.25
2022-09-05T16:23:24.296Z,3.02
2022-09-05T16:24:34.947Z,3.25
2022-09-05T16:29:39.286Z,3.14
2022-09-05T16:34:45.560Z,3.08
2022-09-05T16:39:51.874Z,3.34
2022-09-05T16:44:58.421Z,3.23
2022-09-05T16:50:04.555Z,3.09
2022-09-05T16:55:11.831Z,2.95
2022-09-05T17:00:18.354Z,3.44
2022-09-05T17:05:24.764Z,3.41
2022-09-05T17:10:30.960Z,3.27
2022-09-05T17:15:37.449Z,3.31
2022-09-05T17:20:43.709Z,3.27
2022-09-05T17:29:23.803Z,3.37
2022-09-05T17:31:50.471Z,3.56
2022-09-05T17:36:01.496Z,3.70
2022-09-05T17:41:07.614Z,3.58
2022-09-05T17:46:13.984Z,3.63
2022-09-05T17:51:20.218Z,3.88
2022-09-05T17:56:26.413Z,3.51
2022-09-05T18:01:32.587Z,3.45
2022-09-05T18:06:39.434Z,3.73
2022-09-05T18:11:45.128Z,3.70
2022-09-05T18:17:36.963Z,4.13
2022-09-05T18:21:57.138Z,3.52
2022-09-05T18:27:17.397Z,3.80
2022-09-05T18:32:09.400Z,4.04
2022-09-05T18:37:15.651Z,3.69
2022-09-05T18:42:33.099Z,3.49
2022-09-05T18:47:32.112Z,3.71
2022-09-05T18:52:32.840Z,3.72
2022-09-05T18:57:39.069Z,3.57
2022-09-05T19:02:59.513Z,3.60
2022-09-05T19:08:05.625Z,3.53
2022-09-05T19:13:11.396Z,3.42
2022-09-05T19:18:26.621Z,3.47
2022-09-05T19:23:26.018Z,3.78
2022-09-05T19:36:46.203Z,3.26
2022-09-05T19:37:06.616Z,3.45
2022-09-05T19:39:18.295Z,3.17
2022-09-05T19:47:26.937Z,3.38
2022-09-05T19:48:55.482Z,2.98
2022-09-05T19:54:04.363Z,2.99
2022-09-05T19:59:07.723Z,3.33
2022-09-05T20:04:14.224Z,3.40
2022-09-05T20:09:20.540Z,3.24
2022-09-05T20:14:26.781Z,3.15
2022-09-05T20:19:33.244Z,3.30
2022-09-05T20:24:39.569Z,3.55
2022-09-05T20:29:54.220Z,3.04
2022-09-05T20:39:27.886Z,3.41
2022-09-05T20:43:21.947Z,3.09
2022-09-05T20:45:04.428Z,3.19
2022-09-05T20:54:16.796Z,3.25
2022-09-05T20:55:38.168Z,3.36
2022-09-05T21:00:22.465Z,3.37
2022-09-05T21:05:28.567Z,3.45
2022-09-05T21:10:35.290Z,3.27
2022-09-05T21:15:53.085Z,3.14
2022-09-05T21:20:46.442Z,3.11
2022-09-05T21:25:52.544Z,3.12
2022-09-05T21:30:59.049Z,3.50
2022-09-05T21:36:04.656Z,3.69
2022-09-05T21:41:14.401Z,3.66
2022-09-05T21:47:43.206Z,3.61
2022-09-05T21:51:22.352Z,3.60
2022-09-05T21:59:17.170Z,3.49
2022-09-05T22:01:51.698Z,3.61
2022-09-05T22:06:40.488Z,3.25
2022-09-05T22:11:46.723Z,3.45
2022-09-05T22:16:52.958Z,3.61
2022-09-05T22:22:16.984Z,3.89
2022-09-05T22:27:22.849Z,3.65
2022-09-05T22:32:35.036Z,3.57
2022-09-05T22:37:34.801Z,3.55
2022-09-05T22:42:41.222Z,3.79
2022-09-05T22:47:47.398Z,3.76
2022-09-05T22:52:54.028Z,3.86
2022-09-05T22:58:00.169Z,4.11
2022-09-05T23:03:06.532Z,3.76
2022-09-05T23:08:12.764Z,3.79
2022-09-05T23:13:19.121Z,3.53
2022-09-05T23:18:25.420Z,4.08
2022-09-05T23:23:31.696Z,3.63
2022-09-05T23:28:42.703Z,3.47
2022-09-05T23:33:43.833Z,3.57
2022-09-05T23:38:50.183Z,3.83
2022-09-05T23:43:56.583Z,3.66
2022-09-05T23:49:02.717Z,3.81
2022-09-05T23:54:09.049Z,4.16
2022-09-05T23:59:15.181Z,4.02
